Time;durP1;ratioP1;P1;durP2;ratioP2;P2;SDS_P1;SDS_P2;PMS_P1;PMS_P2;Temp;Humidity;BMP_temperature;BMP_pressure;BME280_temperature;BME280_humidity;BME280_pressure;Samples;Min_cycle;Max_cycle;Signal;HPM_P1;HPM_P2
2023/03/24 00:00:13;;;;;;;9.20;4.30;;;;;;;10.15;100.00;99865.16;5052302;28;20372;-88
2023/03/24 00:02:41;;;;;;;8.35;3.95;;;;;;;10.13;100.00;99853.09;5051112;28;20107;-87
2023/03/24 00:05:10;;;;;;;6.53;4.10;;;;;;;10.14;100.00;99852.22;5052135;28;20070;-88
2023/03/24 00:07:37;;;;;;;5.60;3.88;;;;;;;10.12;100.00;99841.00;5052002;28;20025;-87
2023/03/24 00:10:07;;;;;;;9.13;3.85;;;;;;;10.18;100.00;99835.56;5051679;28;20009;-86
2023/03/24 00:12:32;;;;;;;8.82;4.28;;;;;;;10.21;100.00;99840.66;5052069;28;20025;-88
2023/03/24 00:15:01;;;;;;;6.88;3.70;;;;;;;10.21;100.00;99838.03;5051031;28;20479;-86
2023/03/24 00:17:28;;;;;;;8.43;3.83;;;;;;;10.23;100.00;99846.63;5052343;28;20027;-87
2023/03/24 00:19:55;;;;;;;6.35;3.83;;;;;;;10.24;100.00;99841.38;5052063;28;20431;-87
2023/03/24 00:22:20;;;;;;;10.00;3.65;;;;;;;10.22;100.00;99848.41;5051587;28;20032;-86
2023/03/24 00:24:45;;;;;;;5.55;4.05;;;;;;;10.25;100.00;99834.41;5051957;28;20430;-86
2023/03/24 00:27:12;;;;;;;7.53;3.95;;;;;;;10.26;100.00;99823.09;5051987;28;20067;-87
2023/03/24 00:29:39;;;;;;;5.50;3.70;;;;;;;10.30;100.00;99842.94;5051437;28;20068;-86
2023/03/24 00:32:04;;;;;;;6.22;3.58;;;;;;;10.23;100.00;99815.38;5052063;28;20017;-85
2023/03/24 00:34:30;;;;;;;7.80;3.67;;;;;;;10.33;100.00;99827.16;5051764;28;20072;-87
2023/03/24 00:36:55;;;;;;;7.05;3.40;;;;;;;10.41;100.00;99829.50;5051512;28;20110;-86
2023/03/24 00:39:20;;;;;;;6.03;3.38;;;;;;;10.33;100.00;99811.53;5052214;28;20114;-86
2023/03/24 00:41:47;;;;;;;5.93;3.50;;;;;;;10.40;100.00;99815.63;5051935;28;20178;-85
2023/03/24 00:44:17;;;;;;;5.50;3.42;;;;;;;10.39;100.00;99810.47;5051214;28;20020;-86
2023/03/24 00:46:54;;;;;;;5.38;3.40;;;;;;;10.46;100.00;99810.19;5051930;28;20475;-86
2023/03/24 00:49:43;;;;;;;6.32;3.05;;;;;;;10.43;100.00;99797.28;5051437;28;20056;-85
2023/03/24 00:52:23;;;;;;;3.38;2.78;;;;;;;10.52;100.00;99796.88;5050760;28;20028;-86
2023/03/24 00:54:53;;;;;;;5.30;3.10;;;;;;;10.58;100.00;99802.78;5052875;28;20036;-86
2023/03/24 00:57:22;;;;;;;5.00;3.00;;;;;;;10.63;100.00;99782.59;5054485;28;20033;-86
2023/03/24 00:59:53;;;;;;;4.05;2.80;;;;;;;10.62;100.00;99789.53;5055195;28;20045;-87
2023/03/24 01:02:21;;;;;;;6.50;3.30;;;;;;;10.63;100.00;99793.03;5055486;28;20050;-86
2023/03/24 01:04:47;;;;;;;4.13;2.80;;;;;;;10.57;100.00;99770.66;5054526;28;20028;-86
2023/03/24 01:07:17;;;;;;;4.00;2.88;;;;;;;10.67;100.00;99787.59;5055386;28;20029;-86
2023/03/24 01:09:43;;;;;;;4.55;3.00;;;;;;;10.57;100.00;99769.81;5054731;28;20503;-86
2023/03/24 01:12:08;;;;;;;5.15;2.78;;;;;;;10.61;100.00;99793.06;5054757;28;20154;-86
2023/03/24 01:14:34;;;;;;;5.13;3.28;;;;;;;10.63;100.00;99774.78;5055028;28;20108;-86
2023/03/24 01:16:59;;;;;;;5.13;3.03;;;;;;;10.64;100.00;99773.84;5055311;28;20025;-86
2023/03/24 01:19:25;;;;;;;5.18;3.05;;;;;;;10.63;100.00;99769.56;5054179;28;20036;-87
2023/03/24 01:21:53;;;;;;;4.57;3.03;;;;;;;10.63;100.00;99767.81;5054958;28;20060;-88
2023/03/24 01:24:24;;;;;;;7.13;3.20;;;;;;;10.54;100.00;99750.78;5054804;28;20029;-87
2023/03/24 01:26:49;;;;;;;4.28;3.10;;;;;;;10.59;100.00;99763.59;5051283;28;20484;-86
2023/03/24 01:31:58;;;;;;;5.88;3.38;;;;;;;10.41;100.00;99733.09;5070208;22;20057;-86
2023/03/24 01:34:36;;;;;;;6.70;3.30;;;;;;;10.41;100.00;99743.50;5054181;28;20021;-87
2023/03/24 01:37:02;;;;;;;6.43;3.22;;;;;;;10.46;100.00;99738.94;5054696;28;20033;-90
2023/03/24 01:39:40;;;;;;;5.93;3.28;;;;;;;10.46;100.00;99728.53;5053729;28;20878;-89
2023/03/24 01:47:47;;;;;;;5.93;3.60;;;;;;;10.42;100.00;99724.34;5053668;28;20068;-89
2023/03/24 01:50:22;;;;;;;8.57;3.70;;;;;;;10.18;100.00;99692.31;5054746;28;20017;-89
2023/03/24 01:53:41;;;;;;;4.82;3.70;;;;;;;10.18;100.00;99687.09;5054048;28;20139;-87
2023/03/24 01:56:08;;;;;;;6.72;3.53;;;;;;;10.24;100.00;99692.06;4992811;28;20132;-88
2023/03/24 02:02:33;;;;;;;6.25;3.45;;;;;;;10.19;100.00;99673.16;4961655;28;20037;-87
2023/03/24 02:05:10;;;;;;;4.40;3.58;;;;;;;10.40;100.00;99707.94;4952784;29;20126;-87
2023/03/24 02:07:47;;;;;;;6.60;4.00;;;;;;;10.53;100.00;99715.22;4975684;28;20042;-88
2023/03/24 02:10:37;;;;;;;7.00;3.90;;;;;;;10.55;100.00;99721.19;4992344;28;20026;-87
2023/03/24 02:13:06;;;;;;;6.35;4.00;;;;;;;10.24;100.00;99666.03;4992872;28;20105;-87
2023/03/24 02:16:12;;;;;;;6.55;3.78;;;;;;;10.15;100.00;99645.56;5021928;28;20037;-89
2023/03/24 02:19:37;;;;;;;6.85;4.20;;;;;;;10.55;100.00;99710.75;5053301;28;20082;-88
2023/03/24 02:22:30;;;;;;;8.20;4.60;;;;;;;10.55;100.00;99718.56;5052479;28;20041;-87
2023/03/24 02:25:40;;;;;;;7.93;4.70;;;;;;;10.55;100.00;99729.00;5053746;28;20052;-86
2023/03/24 02:29:03;;;;;;;8.68;5.00;;;;;;;10.54;100.00;99729.91;5053444;28;20401;-86
2023/03/24 02:35:09;;;;;;;6.35;5.00;;;;;;;10.59;100.00;99718.44;5053604;28;20036;-86
2023/03/24 02:38:19;;;;;;;8.95;5.20;;;;;;;10.58;100.00;99722.81;5052543;28;20043;-86
2023/03/24 02:41:12;;;;;;;10.40;5.07;;;;;;;10.59;100.00;99721.06;5036627;28;20033;-87
2023/03/24 02:43:53;;;;;;;9.02;4.93;;;;;;;10.57;100.00;99715.94;5052393;28;20099;-87
2023/03/24 02:46:33;;;;;;;6.82;5.03;;;;;;;10.57;100.00;99725.50;5053665;28;20029;-88
2023/03/24 02:49:28;;;;;;;8.07;5.25;;;;;;;10.49;100.00;99724.03;5053445;28;20052;-87
2023/03/24 02:52:10;;;;;;;8.63;5.68;;;;;;;10.56;100.00;99735.06;5052985;28;20025;-88
2023/03/24 02:54:45;;;;;;;6.45;5.40;;;;;;;10.49;100.00;99724.03;5053226;28;20033;-87
2023/03/24 02:57:42;;;;;;;8.18;4.80;;;;;;;10.54;100.00;99748.16;5052755;28;20021;-87
2023/03/24 03:00:20;;;;;;;8.07;5.20;;;;;;;10.55;100.00;99765.47;5047632;28;20127;-88
2023/03/24 03:02:55;;;;;;;7.15;5.60;;;;;;;10.54;100.00;99774.22;5053005;28;20027;-87
2023/03/24 03:05:33;;;;;;;6.78;5.38;;;;;;;10.55;100.00;99781.13;5052587;28;20017;-87
2023/03/24 03:08:02;;;;;;;7.57;5.57;;;;;;;10.22;100.00;99744.22;5112142;22;20004;-90
2023/03/24 03:10:37;;;;;;;7.45;5.95;;;;;;;10.37;100.00;99784.47;5093409;28;20115;-88
2023/03/24 03:13:16;;;;;;;6.53;5.05;;;;;;;10.41;100.00;99772.19;5092810;28;20028;-89
2023/03/24 03:15:47;;;;;;;6.82;5.10;;;;;;;10.23;100.00;99777.16;5092869;28;20024;-86
2023/03/24 03:18:52;;;;;;;6.18;3.80;;;;;;;10.23;100.00;99812.78;5092580;28;20051;-87
2023/03/24 03:22:03;;;;;;;4.65;3.28;;;;;;;10.07;100.00;99829.00;5092347;28;20085;-86
2023/03/24 03:24:33;;;;;;;3.63;3.20;;;;;;;9.83;100.00;99819.47;5085435;28;20122;-87
2023/03/24 03:27:42;;;;;;;4.18;2.70;;;;;;;9.66;100.00;99817.50;5092220;28;20092;-86
2023/03/24 03:30:14;;;;;;;5.93;2.85;;;;;;;9.49;100.00;99830.25;5092727;28;20024;-87
2023/03/24 03:32:55;;;;;;;3.20;2.28;;;;;;;9.33;100.00;99848.16;5091950;28;20016;-87
2023/03/24 03:35:50;;;;;;;6.25;2.40;;;;;;;9.18;100.00;99859.06;5092547;28;20035;-88
2023/03/24 03:44:59;;;;;;;5.00;2.60;;;;;;;9.12;100.00;99886.09;5082578;28;20085;-87
2023/03/24 03:47:25;;;;;;;4.75;2.72;;;;;;;9.07;100.00;99888.03;5092053;28;20103;-87
2023/03/24 03:49:50;;;;;;;6.05;3.47;;;;;;;9.02;100.00;99901.16;5092375;28;20016;-86
2023/03/24 03:55:26;;;;;;;6.93;4.28;;;;;;;8.67;100.00;99886.69;5042965;28;20032;-86
2023/03/24 04:04:19;;;;;;;8.52;4.05;;;;;;;8.25;100.00;99917.34;5072792;28;20098;-86
2023/03/24 04:07:11;;;;;;;9.93;4.20;;;;;;;8.14;100.00;99915.91;5078838;28;20035;-86
2023/03/24 04:10:17;;;;;;;5.90;3.33;;;;;;;8.09;100.00;99935.09;5078233;28;20037;-87
2023/03/24 04:12:56;;;;;;;7.22;3.60;;;;;;;8.12;100.00;99942.81;5092571;28;20027;-86
2023/03/24 04:15:28;;;;;;;10.98;3.08;;;;;;;8.15;100.00;99953.94;5079147;28;20054;-86
2023/03/24 04:18:09;;;;;;;7.78;2.88;;;;;;;8.19;100.00;99965.94;5092517;28;20115;-88
2023/03/24 04:20:45;;;;;;;10.15;2.45;;;;;;;8.26;100.00;99974.41;5092381;28;20035;-87
2023/03/24 04:23:31;;;;;;;9.18;2.10;;;;;;;8.33;100.00;99975.94;5089467;28;20028;-88
2023/03/24 04:26:10;;;;;;;7.93;2.22;;;;;;;8.36;100.00;99980.22;5082963;28;20024;-86
2023/03/24 04:28:58;;;;;;;10.65;2.40;;;;;;;8.29;100.00;99974.34;5085838;28;20047;-87
2023/03/24 04:31:33;;;;;;;10.05;2.20;;;;;;;8.25;100.00;99970.13;5095842;28;20032;-86
2023/03/24 04:34:19;;;;;;;11.65;2.50;;;;;;;8.30;100.00;99988.16;5096525;28;20031;-86
2023/03/24 04:36:53;;;;;;;7.53;2.30;;;;;;;8.32;100.00;99995.03;5095325;28;20585;-87
2023/03/24 04:39:26;;;;;;;;;;;;;;;8.29;100.00;100002.06;5096353;28;20044;-87
2023/03/24 04:41:55;;;;;;;8.30;2.50;;;;;;;8.23;100.00;100000.47;5095935;28;19916;-88
2023/03/24 04:44:21;;;;;;;8.20;2.80;;;;;;;8.21;100.00;100000.53;5090790;28;20021;-86
2023/03/24 04:46:49;;;;;;;9.25;2.95;;;;;;;8.16;100.00;100001.53;5085919;28;20024;-87
2023/03/24 04:49:14;;;;;;;7.95;3.60;;;;;;;8.15;100.00;100016.25;5080978;28;20043;-86
2023/03/24 04:51:41;;;;;;;10.48;3.67;;;;;;;8.04;100.00;100007.88;5087017;28;20024;-86
2023/03/24 04:54:06;;;;;;;13.48;3.83;;;;;;;8.05;100.00;100021.75;5090572;28;20032;-87
2023/03/24 04:56:52;;;;;;;9.65;4.18;;;;;;;8.02;100.00;100022.66;5094790;28;20391;-86
2023/03/24 04:59:18;;;;;;;12.32;3.63;;;;;;;7.97;100.00;100011.53;5095250;28;20036;-87
2023/03/24 05:01:50;;;;;;;10.68;3.92;;;;;;;7.86;100.00;100000.59;5087747;28;20044;-86
2023/03/24 05:04:17;;;;;;;12.02;3.83;;;;;;;7.90;100.00;100021.22;5089303;28;20020;-87
2023/03/24 05:06:45;;;;;;;11.98;4.60;;;;;;;7.91;100.00;100017.75;5095671;28;20042;-87
2023/03/24 05:09:11;;;;;;;11.32;4.18;;;;;;;7.93;100.00;100025.50;5095437;28;20027;-87
2023/03/24 05:11:37;;;;;;;10.57;3.85;;;;;;;7.89;100.00;100022.13;5094346;28;20065;-86
2023/03/24 05:14:02;;;;;;;10.85;3.75;;;;;;;7.82;100.00;100030.97;5095536;28;20024;-87
2023/03/24 05:16:27;;;;;;;12.18;4.00;;;;;;;7.76;100.00;100030.28;5095279;28;20039;-87
2023/03/24 05:26:34;;;;;;;7.72;2.70;;;;;;;7.70;100.00;100052.88;5112801;28;20507;-86
2023/03/24 05:29:00;;;;;;;9.93;3.20;;;;;;;7.81;100.00;100052.59;5115663;28;20061;-86
2023/03/24 05:31:25;;;;;;;15.00;3.30;;;;;;;7.86;100.00;100040.38;5114861;28;20406;-87
2023/03/24 05:33:51;;;;;;;7.75;2.50;;;;;;;7.98;100.00;100067.78;5114975;28;20031;-86
2023/03/24 05:36:16;;;;;;;9.32;2.88;;;;;;;7.97;100.00;100058.25;5115546;28;20059;-87
2023/03/24 05:38:41;;;;;;;15.65;3.00;;;;;;;8.00;100.00;100058.19;5114188;28;20409;-87
2023/03/24 05:41:07;;;;;;;11.73;3.08;;;;;;;7.96;100.00;100062.59;5114015;28;20027;-86
2023/03/24 05:43:32;;;;;;;15.73;2.92;;;;;;;7.91;100.00;100067.09;5115044;28;20035;-87
2023/03/24 05:45:59;;;;;;;10.70;3.03;;;;;;;7.97;100.00;100074.69;5114710;28;20020;-86
2023/03/24 05:48:25;;;;;;;20.95;3.83;;;;;;;7.97;100.00;100079.03;5115440;28;20015;-86
2023/03/24 05:50:51;;;;;;;11.98;3.20;;;;;;;7.92;100.00;100076.56;5114692;28;20387;-86
2023/03/24 05:53:17;;;;;;;10.30;2.88;;;;;;;7.98;100.00;100080.75;5114502;28;20103;-86
2023/03/24 05:55:44;;;;;;;9.50;3.17;;;;;;;7.95;100.00;100079.09;5115123;28;20509;-87
2023/03/24 06:03:20;;;;;;;14.18;2.88;;;;;;;7.88;100.00;100067.16;5499341;22;20407;-86
2023/03/24 06:05:49;;;;;;;7.18;2.78;;;;;;;7.97;100.00;100089.41;5094245;28;20032;-87
2023/03/24 06:08:15;;;;;;;14.98;2.75;;;;;;;7.98;100.00;100076.41;5088579;28;20017;-85
2023/03/24 06:10:41;;;;;;;12.30;2.55;;;;;;;8.06;100.00;100084.00;5085454;28;20020;-86
2023/03/24 06:13:07;;;;;;;9.57;2.60;;;;;;;8.05;100.00;100089.25;5094403;28;20016;-86
2023/03/24 06:15:33;;;;;;;13.40;2.78;;;;;;;8.03;100.00;100081.47;5093259;28;20366;-87
2023/03/24 06:17:59;;;;;;;11.02;2.42;;;;;;;8.09;100.00;100099.50;5094106;28;20020;-86
2023/03/24 06:20:25;;;;;;;10.80;2.80;;;;;;;8.11;100.00;100102.03;5093935;28;20042;-86
2023/03/24 06:22:50;;;;;;;13.20;3.40;;;;;;;8.16;100.00;100106.22;5093582;28;20024;-85
2023/03/24 06:25:19;;;;;;;17.55;2.85;;;;;;;8.23;100.00;100111.28;5093850;28;20089;-87
2023/03/24 06:27:45;;;;;;;10.02;2.22;;;;;;;8.29;100.00;100111.13;5092950;28;20032;-86
2023/03/24 06:30:11;;;;;;;11.75;2.65;;;;;;;8.32;100.00;100111.91;5093826;28;20020;-86
2023/03/24 06:32:37;;;;;;;13.15;2.70;;;;;;;8.35;100.00;100117.00;5093860;28;20036;-86
2023/03/24 06:35:02;;;;;;;8.85;3.00;;;;;;;8.31;100.00;100109.34;5092961;28;20116;-86
2023/03/24 06:37:28;;;;;;;13.88;3.00;;;;;;;8.33;100.00;100128.31;5093759;28;20024;-87
2023/03/24 06:39:53;;;;;;;11.07;2.78;;;;;;;8.35;100.00;100126.56;5093980;28;20484;-87
2023/03/24 06:42:18;;;;;;;7.80;2.50;;;;;;;8.37;100.00;100133.41;5078478;28;20036;-85
2023/03/24 06:44:44;;;;;;;10.93;2.67;;;;;;;8.47;100.00;100136.66;5093679;28;20052;-86
2023/03/24 06:47:09;;;;;;;12.23;2.47;;;;;;;8.55;100.00;100120.88;5093714;28;20024;-86
2023/03/24 06:49:36;;;;;;;10.45;2.58;;;;;;;8.67;100.00;100134.38;5092573;28;20024;-85
2023/03/24 06:52:02;;;;;;;11.10;2.50;;;;;;;8.71;100.00;100131.72;5093759;28;20096;-86
2023/03/24 06:54:27;;;;;;;19.48;2.20;;;;;;;8.74;100.00;100134.22;5093225;28;20024;-86
2023/03/24 06:56:53;;;;;;;11.68;2.92;;;;;;;8.74;100.00;100131.63;5083236;28;20031;-85
2023/03/24 06:59:22;;;;;;;15.48;3.20;;;;;;;8.76;100.00;100138.47;5088716;28;20027;-86
2023/03/24 07:01:48;;;;;;;17.08;2.55;;;;;;;8.82;100.00;100134.84;5093201;28;20044;-86
2023/03/24 07:04:13;;;;;;;13.95;2.20;;;;;;;8.87;100.00;100135.59;5078062;28;20041;-86
2023/03/24 07:06:41;;;;;;;10.43;2.65;;;;;;;8.93;100.00;100135.41;5093032;28;20353;-86
2023/03/24 07:09:06;;;;;;;14.18;2.85;;;;;;;8.94;100.00;100129.31;5093685;28;20020;-86
2023/03/24 07:11:32;;;;;;;14.07;3.63;;;;;;;8.94;100.00;100118.91;5077958;28;20027;-86
2023/03/24 07:13:57;;;;;;;13.52;3.10;;;;;;;8.98;100.00;100128.34;5083292;28;20460;-85
2023/03/24 07:16:22;;;;;;;12.95;3.22;;;;;;;9.10;100.00;100150.53;5089321;28;20028;-86
2023/03/24 07:18:47;;;;;;;8.63;2.72;;;;;;;9.11;100.00;100145.28;5092395;28;20028;-85
2023/03/24 07:21:13;;;;;;;16.90;2.33;;;;;;;9.21;100.00;100145.03;5079163;28;20112;-86
2023/03/24 07:23:38;;;;;;;9.13;2.25;;;;;;;9.23;100.00;100138.88;5092429;28;20028;-86
2023/03/24 07:26:03;;;;;;;9.82;2.17;;;;;;;9.33;100.00;100149.88;5092509;28;20073;-86
2023/03/24 07:28:29;;;;;;;9.75;2.60;;;;;;;9.39;100.00;100147.09;5092500;28;20020;-86
2023/03/24 07:30:54;;;;;;;16.17;3.03;;;;;;;9.46;100.00;100153.81;5092476;28;20032;-86
2023/03/24 07:33:20;;;;;;;11.60;3.00;;;;;;;9.50;100.00;100171.03;5091084;28;20103;-85
2023/03/24 07:35:46;;;;;;;12.68;2.95;;;;;;;9.52;100.00;100158.84;5086330;28;20017;-86
2023/03/24 07:38:11;;;;;;;13.07;2.38;;;;;;;9.74;100.00;100169.44;5081660;28;20016;-86
2023/03/24 07:40:36;;;;;;;12.82;3.15;;;;;;;9.76;100.00;100159.00;5077957;28;20024;-86
2023/03/24 07:43:07;;;;;;;11.10;2.88;;;;;;;9.78;100.00;100167.63;5093002;28;20418;-86
2023/03/24 07:45:33;;;;;;;15.48;3.05;;;;;;;9.79;100.00;100174.53;5091837;28;20484;-86
2023/03/24 07:48:00;;;;;;;10.10;2.55;;;;;;;9.73;100.00;100167.75;5092840;28;20032;-86
2023/03/24 07:50:27;;;;;;;15.00;3.47;;;;;;;9.73;100.00;100174.69;5092512;28;20016;-86
2023/03/24 07:58:03;;;;;;;10.75;2.65;;;;;;;10.26;100.00;100180.84;5331281;22;20454;-86
2023/03/24 08:00:29;;;;;;;16.63;3.28;;;;;;;10.41;100.00;100182.09;5051620;28;20025;-86
2023/03/24 08:02:54;;;;;;;11.90;2.60;;;;;;;10.40;100.00;100176.94;5066572;28;20070;-86
2023/03/24 08:05:21;;;;;;;17.02;3.40;;;;;;;10.49;100.00;100187.03;5054241;28;20021;-86
2023/03/24 08:07:52;;;;;;;13.93;3.10;;;;;;;10.70;100.00;100193.31;5104560;22;20073;-85
2023/03/24 08:10:19;;;;;;;12.32;3.00;;;;;;;10.87;100.00;100180.53;5036735;28;20049;-86
2023/03/24 08:12:45;;;;;;;8.38;2.72;;;;;;;11.07;100.00;100194.63;5036351;28;20075;-85
2023/03/24 08:15:11;;;;;;;14.18;3.28;;;;;;;11.13;100.00;100183.97;5035801;28;20017;-86
2023/03/24 08:17:37;;;;;;;15.65;3.63;;;;;;;11.14;100.00;100206.53;5036325;28;20033;-85
2023/03/24 08:20:07;;;;;;;13.00;3.20;;;;;;;10.96;100.00;100184.56;5035793;28;20032;-86
2023/03/24 08:22:32;;;;;;;13.65;3.08;;;;;;;10.96;100.00;100203.69;5036558;28;20036;-86
2023/03/24 08:24:57;;;;;;;10.48;2.63;;;;;;;10.93;100.00;100177.72;5036153;28;20029;-86
2023/03/24 08:27:22;;;;;;;13.90;3.08;;;;;;;11.04;100.00;100203.41;5035234;28;20402;-85
2023/03/24 08:29:48;;;;;;;10.27;3.15;;;;;;;10.99;100.00;100195.75;5036085;28;20079;-85
2023/03/24 08:32:13;;;;;;;12.23;2.60;;;;;;;11.02;100.00;100195.66;5036350;28;20049;-86
2023/03/24 08:34:39;;;;;;;11.60;2.80;;;;;;;11.03;100.00;100199.09;5035249;28;20045;-86
2023/03/24 08:37:04;;;;;;;12.35;3.10;;;;;;;11.19;100.00;100228.94;5035988;28;20025;-86
2023/03/24 08:39:31;;;;;;;14.82;2.78;;;;;;;11.23;100.00;100214.03;5035503;28;20045;-86
2023/03/24 08:49:41;;;;;;;11.02;3.55;;;;;;;11.70;100.00;100214.03;5903431;22;20461;-86
2023/03/24 08:52:07;;;;;;;10.48;3.28;;;;;;;11.76;99.47;100226.00;5068137;28;20028;-85
2023/03/24 08:54:33;;;;;;;10.35;2.42;;;;;;;11.62;100.00;100230.00;5056776;28;20071;-86
2023/03/24 08:56:58;;;;;;;14.75;2.58;;;;;;;11.45;100.00;100227.16;5054336;28;20021;-85
2023/03/24 08:59:23;;;;;;;12.38;3.15;;;;;;;11.32;100.00;100237.19;5055282;28;20025;-86
2023/03/24 09:01:48;;;;;;;10.10;2.65;;;;;;;11.28;100.00;100227.78;5063644;28;20029;-86
2023/03/24 09:04:14;;;;;;;11.65;2.85;;;;;;;11.19;100.00;100212.44;5060511;28;20396;-85
2023/03/24 09:06:39;;;;;;;13.32;3.15;;;;;;;11.32;100.00;100231.97;5055141;28;20100;-85
2023/03/24 09:09:05;;;;;;;11.55;2.33;;;;;;;11.46;99.44;100234.91;5055360;28;20056;-86
2023/03/24 09:11:30;;;;;;;12.10;2.90;;;;;;;11.51;98.46;100228.66;5054429;28;20025;-85
2023/03/24 09:13:55;;;;;;;12.95;2.85;;;;;;;11.51;98.16;100232.16;5074599;22;20081;-85
2023/03/24 09:16:22;;;;;;;12.15;2.47;;;;;;;11.56;97.19;100232.81;5094371;28;20020;-85
2023/03/24 09:18:47;;;;;;;10.63;2.70;;;;;;;11.63;97.35;100238.66;5095315;28;20466;-85
2023/03/24 09:21:13;;;;;;;11.05;2.55;;;;;;;11.73;96.70;100242.63;5095232;28;20075;-84
2023/03/24 09:23:38;;;;;;;13.43;2.70;;;;;;;11.59;96.08;100227.50;5076237;28;20020;-85
2023/03/24 09:26:04;;;;;;;9.57;2.88;;;;;;;11.62;97.39;100240.44;5083504;28;20484;-85
2023/03/24 09:28:30;;;;;;;9.80;2.35;;;;;;;11.66;97.45;100256.84;5092431;28;20570;-84
2023/03/24 09:31:00;;;;;;;9.85;2.72;;;;;;;11.79;96.92;100252.84;5094545;28;20118;-84
2023/03/24 09:33:28;;;;;;;8.48;2.25;;;;;;;12.06;96.77;100252.72;5095225;28;20047;-85
2023/03/24 09:35:55;;;;;;;13.57;2.47;;;;;;;12.39;95.79;100250.53;5094889;28;20038;-85
2023/03/24 09:38:20;;;;;;;15.32;2.88;;;;;;;12.21;94.31;100269.59;5094351;28;20112;-86
2023/03/24 09:40:49;;;;;;;11.45;2.55;;;;;;;12.24;94.98;100265.09;5094855;28;20103;-84
2023/03/24 09:43:26;;;;;;;11.10;2.95;;;;;;;12.17;94.93;100281.94;5094880;28;20030;-84
2023/03/24 09:45:54;;;;;;;13.27;2.78;;;;;;;11.99;94.71;100256.50;5094042;28;20028;-85
2023/03/24 09:48:58;;;;;;;8.90;2.50;;;;;;;11.90;97.89;100262.91;5094840;28;20043;-84
2023/03/24 09:51:37;;;;;;;13.90;2.72;;;;;;;11.93;97.42;100274.13;5032558;28;20021;-85
2023/03/24 09:54:26;;;;;;;9.75;2.78;;;;;;;12.10;99.71;100262.19;5084647;28;20035;-85
2023/03/24 09:56:53;;;;;;;12.25;2.92;;;;;;;12.22;92.49;100266.06;5094827;28;20024;-84
2023/03/24 09:59:29;;;;;;;12.30;3.28;;;;;;;12.25;96.48;100266.78;5093957;28;20035;-84
2023/03/24 10:01:56;;;;;;;10.80;2.33;;;;;;;12.21;88.73;100254.75;5094759;28;20027;-84
2023/03/24 10:04:27;;;;;;;11.23;2.83;;;;;;;12.21;91.30;100259.13;5094422;28;20079;-84
2023/03/24 10:07:04;;;;;;;8.48;2.15;;;;;;;12.32;89.66;100260.38;5093990;28;20082;-84
2023/03/24 10:09:33;;;;;;;7.93;2.58;;;;;;;12.26;89.33;100268.50;5093723;28;20399;-84
2023/03/24 10:12:23;;;;;;;14.70;2.45;;;;;;;12.30;89.55;100257.00;5094591;28;20058;-85
2023/03/24 10:15:07;;;;;;;7.63;2.10;;;;;;;12.46;90.07;100265.09;5078928;28;20036;-83
2023/03/24 10:17:42;;;;;;;11.10;2.60;;;;;;;12.56;87.87;100276.88;5094117;28;20137;-84
2023/03/24 10:20:19;;;;;;;9.95;2.20;;;;;;;12.50;84.45;100278.88;5093620;28;20024;-84
2023/03/24 10:22:49;;;;;;;7.53;2.10;;;;;;;12.45;83.42;100265.13;5094261;28;20036;-84
2023/03/24 10:25:25;;;;;;;10.80;2.42;;;;;;;12.46;81.15;100279.91;5094298;28;20117;-84
2023/03/24 10:28:00;;;;;;;9.25;2.30;;;;;;;12.51;82.82;100264.88;5092396;28;20565;-84
2023/03/24 10:30:30;;;;;;;10.07;2.58;;;;;;;12.68;81.30;100283.34;5093916;28;20055;-83
2023/03/24 10:32:56;;;;;;;8.18;2.17;;;;;;;12.60;79.91;100277.59;5094267;28;20482;-83
2023/03/24 10:35:28;;;;;;;10.00;2.28;;;;;;;12.76;82.79;100283.06;5093003;28;20103;-85
2023/03/24 10:37:57;;;;;;;7.03;2.30;;;;;;;12.82;81.48;100247.03;5094001;28;20372;-83
2023/03/24 10:40:33;;;;;;;7.72;2.50;;;;;;;13.13;78.03;100267.50;5093704;28;20024;-84
2023/03/24 10:43:02;;;;;;;9.93;2.30;;;;;;;13.16;78.58;100265.66;5093343;28;20103;-84
2023/03/24 10:45:32;;;;;;;8.15;2.00;;;;;;;13.30;79.74;100279.88;5080410;28;20028;-84
2023/03/24 10:48:02;;;;;;;8.95;2.05;;;;;;;13.39;78.01;100273.38;5092513;28;20016;-84
2023/03/24 10:50:29;;;;;;;9.13;2.55;;;;;;;13.52;76.86;100282.41;5093511;28;20032;-84
2023/03/24 10:52:56;;;;;;;9.57;2.50;;;;;;;13.37;76.64;100256.88;5093654;28;20031;-83
2023/03/24 10:55:28;;;;;;;8.57;2.63;;;;;;;13.44;75.05;100281.03;5093065;28;20067;-83
2023/03/24 10:57:56;;;;;;;7.75;2.45;;;;;;;13.22;75.89;100258.41;5093440;28;20471;-83
2023/03/24 11:00:30;;;;;;;11.57;3.03;;;;;;;13.24;78.09;100269.69;5093624;28;20137;-83
2023/03/24 11:03:11;;;;;;;10.27;2.25;;;;;;;13.22;77.48;100266.25;5092714;28;20032;-83
2023/03/24 11:05:38;;;;;;;8.18;2.13;;;;;;;13.09;76.93;100265.09;5082521;28;20100;-83
2023/03/24 11:08:16;;;;;;;12.27;2.70;;;;;;;13.12;79.03;100270.19;5075785;28;20043;-83
2023/03/24 11:10:42;;;;;;;8.73;2.45;;;;;;;13.28;78.25;100276.50;5092706;28;20103;-83
2023/03/24 11:13:17;;;;;;;12.13;2.70;;;;;;;13.46;75.83;100271.34;5093128;28;20044;-84
2023/03/24 11:15:52;;;;;;;8.85;2.88;;;;;;;13.56;74.45;100259.53;5093196;28;20063;-83
2023/03/24 11:18:18;;;;;;;12.35;2.67;;;;;;;13.62;73.43;100253.19;5092842;28;20016;-84
2023/03/24 11:20:53;;;;;;;7.68;2.53;;;;;;;13.69;72.02;100260.69;5092621;28;20146;-83
2023/03/24 11:23:24;;;;;;;9.85;2.60;;;;;;;14.01;70.92;100260.97;5090263;28;20024;-83
2023/03/24 11:26:08;;;;;;;9.90;3.15;;;;;;;14.26;69.86;100251.03;5081854;28;20456;-83
2023/03/24 11:28:44;;;;;;;8.15;1.90;;;;;;;14.15;69.68;100262.94;5092561;28;20028;-83
2023/03/24 11:31:17;;;;;;;6.57;2.05;;;;;;;13.89;67.73;100262.38;5092408;28;20024;-83
2023/03/24 11:34:09;;;;;;;7.45;2.08;;;;;;;13.68;70.76;100253.75;5092388;28;20023;-83
2023/03/24 11:36:41;;;;;;;12.25;2.55;;;;;;;13.45;71.08;100273.13;5063731;28;20032;-83
2023/03/24 11:39:24;;;;;;;8.07;2.10;;;;;;;12.94;75.26;100268.34;5091507;28;20027;-83
2023/03/24 11:42:04;;;;;;;8.83;2.60;;;;;;;12.23;85.84;100278.19;5092501;28;20052;-83
2023/03/24 11:44:40;;;;;;;7.97;2.90;;;;;;;11.41;94.89;100283.84;5091941;28;20465;-85
2023/03/24 11:47:20;;;;;;;9.88;2.85;;;;;;;10.64;100.00;100287.34;5092526;28;20468;-86
2023/03/24 11:49:55;;;;;;;10.98;3.15;;;;;;;10.16;100.00;100308.78;5085522;28;20029;-86
2023/03/24 11:52:27;;;;;;;12.82;3.33;;;;;;;9.84;100.00;100336.63;5086411;28;20085;-85
2023/03/24 11:54:53;;;;;;;11.32;3.00;;;;;;;9.47;100.00;100334.19;5085965;28;20058;-84
2023/03/24 11:57:50;;;;;;;12.02;3.35;;;;;;;9.24;100.00;100337.41;5086094;28;20165;-85
2023/03/24 12:00:32;;;;;;;9.52;3.47;;;;;;;9.12;100.00;100331.66;5091963;28;20486;-87
2023/03/24 12:03:19;;;;;;;12.93;3.55;;;;;;;9.11;100.00;100348.13;5092795;28;20016;-87
2023/03/24 12:05:51;;;;;;;11.75;3.95;;;;;;;9.09;100.00;100334.31;5091897;28;20371;-85
2023/03/24 12:11:13;;;;;;;6.93;2.10;;;;;;;8.63;100.00;100361.44;5435630;22;20176;-82
2023/03/24 12:13:47;;;;;;;7.93;2.00;;;;;;;8.57;100.00;100350.31;5079199;28;20069;-84
2023/03/24 12:29:25;;;;;;;4.32;1.20;;;;;;;9.09;100.00;100331.72;5089498;28;20373;-86
2023/03/24 12:32:41;;;;;;;7.07;1.10;;;;;;;9.09;100.00;100326.53;5092311;28;20099;-85
2023/03/24 12:35:32;;;;;;;2.60;1.00;;;;;;;9.10;100.00;100323.00;5029142;28;20033;-86
2023/03/24 12:48:57;;;;;;;4.47;1.70;;;;;;;9.52;100.00;100316.72;4931986;29;20518;-87
2023/03/24 12:52:16;;;;;;;3.80;1.90;;;;;;;9.54;100.00;100245.50;4934123;28;20062;-85
2023/03/24 12:55:11;;;;;;;7.82;2.08;;;;;;;10.34;100.00;100312.63;5094117;28;20830;-87
2023/03/24 12:58:12;;;;;;;4.85;2.38;;;;;;;11.28;100.00;100302.56;5095494;28;20052;-86
2023/03/24 13:01:34;;;;;;;8.57;2.80;;;;;;;11.99;100.00;100295.69;5095203;28;20024;-87
2023/03/24 13:04:34;;;;;;;3.47;1.30;;;;;;;12.61;100.00;100280.13;5086905;28;20043;-86
2023/03/24 13:13:51;;;;;;;2.85;1.50;;;;;;;13.58;100.00;100261.19;5087777;28;20467;-86
2023/03/24 13:16:23;;;;;;;4.65;1.35;;;;;;;13.66;100.00;100278.31;5089000;28;20057;-86
2023/03/24 13:18:54;;;;;;;4.95;1.88;;;;;;;13.31;100.00;100254.56;5095245;28;20065;-86